Time;durP1;ratioP1;P1;durP2;ratioP2;P2;SDS_P1;SDS_P2;PMS_P1;PMS_P2;Temp;Humidity;BMP_temperature;BMP_pressure;BME280_temperature;BME280_humidity;BME280_pressure;Samples;Min_cycle;Max_cycle;Signal;HPM_P1;HPM_P2
2021/04/15 00:01:10;;;;;;;5.97;0.90;;;4.60;76.60;;;;;;5056307;28;20044;-73
2021/04/15 00:03:36;;;;;;;5.78;0.77;;;4.60;76.70;;;;;;5019322;28;20087;-74
2021/04/15 00:06:29;;;;;;;8.33;0.70;;;4.60;76.80;;;;;;5056050;28;20017;-73
2021/04/15 00:08:56;;;;;;;2.93;0.70;;;4.60;76.80;;;;;;5040553;28;20472;-73
2021/04/15 00:11:26;;;;;;;3.60;0.90;;;4.60;76.90;;;;;;5055113;28;20036;-73
2021/04/15 00:13:55;;;;;;;6.40;0.90;;;4.70;76.90;;;;;;5056234;28;20051;-74
2021/04/15 00:16:22;;;;;;;5.57;0.90;;;4.70;76.80;;;;;;5054578;28;20155;-77
2021/04/15 00:18:48;;;;;;;6.83;0.90;;;4.70;76.90;;;;;;5056035;28;20032;-77
2021/04/15 00:21:15;;;;;;;5.97;0.80;;;4.70;77.00;;;;;;5054639;28;20024;-77
2021/04/15 00:23:41;;;;;;;3.90;0.70;;;4.70;77.10;;;;;;5055659;28;20062;-77
2021/04/15 00:26:08;;;;;;;3.07;0.77;;;4.70;77.10;;;;;;5054618;28;20021;-77
2021/04/15 00:28:35;;;;;;;4.43;1.07;;;4.70;77.10;;;;;;5056142;28;20125;-77
2021/04/15 00:31:02;;;;;;;4.77;0.80;;;4.70;77.00;;;;;;5038367;28;20420;-77
2021/04/15 00:33:27;;;;;;;6.67;1.00;;;4.70;77.10;;;;;;5056042;28;20035;-77
2021/04/15 00:35:53;;;;;;;7.43;0.80;;;4.70;77.60;;;;;;5054726;28;20391;-77
2021/04/15 00:38:21;;;;;;;3.30;0.80;;;4.70;77.30;;;;;;5055815;28;20029;-77
2021/04/15 00:40:48;;;;;;;3.53;0.60;;;4.70;77.30;;;;;;5053665;28;20025;-78
2021/04/15 00:43:15;;;;;;;3.23;0.80;;;4.70;77.40;;;;;;5055886;28;20048;-77
2021/04/15 00:45:44;;;;;;;5.23;0.87;;;4.80;77.60;;;;;;5053967;28;20067;-77
2021/04/15 00:48:36;;;;;;;3.00;0.90;;;4.80;78.10;;;;;;5055312;28;20025;-77
2021/04/15 00:51:30;;;;;;;3.97;0.70;;;4.80;78.00;;;;;;5054160;28;20059;-77
2021/04/15 00:54:01;;;;;;;2.80;0.60;;;4.80;78.00;;;;;;5037851;28;20073;-77
2021/04/15 00:56:27;;;;;;;2.80;0.70;;;4.90;78.80;;;;;;5053783;28;20027;-77
2021/04/15 00:58:53;;;;;;;2.63;0.40;;;4.90;79.80;;;;;;5053654;28;20099;-77
2021/04/15 01:01:20;;;;;;;1.33;0.40;;;5.00;80.00;;;;;;5054059;28;20488;-77
2021/04/15 01:03:45;;;;;;;5.80;0.50;;;4.90;80.40;;;;;;5054918;28;20120;-77
2021/04/15 01:06:12;;;;;;;1.83;0.50;;;4.90;81.30;;;;;;5054132;28;20108;-77
2021/04/15 01:08:37;;;;;;;2.13;0.40;;;5.00;81.90;;;;;;5053353;28;20051;-77
2021/04/15 01:11:21;;;;;;;1.80;0.30;;;4.90;81.50;;;;;;5054737;28;20546;-77
2021/04/15 01:14:05;;;;;;;0.80;0.20;;;5.10;81.30;;;;;;5054636;28;20029;-77
2021/04/15 01:16:37;;;;;;;2.72;0.45;;;4.90;82.30;;;;;;5054302;28;20388;-77
2021/04/15 01:19:17;;;;;;;0.53;0.30;;;5.00;81.40;;;;;;5054784;28;20067;-72
2021/04/15 01:22:15;;;;;;;1.63;0.73;;;4.90;81.30;;;;;;5053112;28;20029;-73
2021/04/15 01:24:53;;;;;;;1.67;0.30;;;4.90;81.20;;;;;;5054367;28;20049;-72
2021/04/15 01:27:37;;;;;;;1.80;0.30;;;4.90;81.10;;;;;;5052748;28;20108;-73
2021/04/15 01:30:24;;;;;;;0.50;0.20;;;4.90;81.20;;;;;;5034916;28;20036;-73
2021/04/15 01:32:53;;;;;;;0.80;0.30;;;4.90;81.20;;;;;;5050232;28;20041;-73
2021/04/15 01:35:33;;;;;;;0.60;0.30;;;4.90;81.20;;;;;;5050134;28;20034;-73
2021/04/15 01:38:01;;;;;;;1.03;0.23;;;4.90;81.10;;;;;;5033266;28;20036;-73
2021/04/15 01:40:33;;;;;;;0.57;0.20;;;4.90;81.00;;;;;;5034277;28;20033;-73
2021/04/15 01:43:03;;;;;;;2.00;1.13;;;4.90;81.10;;;;;;5044515;28;20411;-73
2021/04/15 01:45:30;;;;;;;0.83;0.20;;;4.90;81.30;;;;;;5059025;28;20062;-73
2021/04/15 01:48:00;;;;;;;2.50;0.67;;;4.80;81.30;;;;;;5074456;28;20024;-73
2021/04/15 01:50:41;;;;;;;1.90;0.30;;;4.80;81.50;;;;;;5074408;28;20013;-73
2021/04/15 01:53:14;;;;;;;1.23;0.30;;;4.80;81.60;;;;;;5055928;28;20110;-72
2021/04/15 01:55:50;;;;;;;2.10;0.27;;;4.70;81.60;;;;;;5074228;28;20017;-72
2021/04/15 01:58:37;;;;;;;2.00;0.30;;;4.80;81.80;;;;;;5074224;28;20560;-73
2021/04/15 02:01:18;;;;;;;1.60;0.30;;;4.80;81.80;;;;;;5072816;28;20516;-73
2021/04/15 02:03:46;;;;;;;0.60;0.20;;;4.80;81.70;;;;;;5074098;28;20017;-73
2021/04/15 02:06:27;;;;;;;1.57;0.30;;;4.70;81.80;;;;;;5073857;28;20020;-72
2021/04/15 02:08:58;;;;;;;2.57;0.30;;;4.80;82.00;;;;;;5073787;28;20492;-73
2021/04/15 02:11:40;;;;;;;0.97;0.40;;;4.70;82.00;;;;;;5073807;28;20103;-73
2021/04/15 02:14:13;;;;;;;1.00;0.60;;;4.80;82.10;;;;;;5073697;28;20029;-73
2021/04/15 02:16:40;;;;;;;0.70;0.30;;;4.80;82.20;;;;;;5055374;28;20468;-73
2021/04/15 02:19:17;;;;;;;0.30;0.20;;;4.80;82.30;;;;;;5073564;28;20040;-73
2021/04/15 02:22:17;;;;;;;0.50;0.20;;;4.80;82.50;;;;;;5073969;28;20056;-73
2021/04/15 02:25:01;;;;;;;0.90;0.30;;;4.80;82.50;;;;;;5073531;28;20058;-73
2021/04/15 02:27:41;;;;;;;1.88;0.30;;;4.80;82.40;;;;;;5073883;28;20059;-73
2021/04/15 02:30:23;;;;;;;1.60;0.30;;;4.80;82.40;;;;;;5073320;28;20017;-73
2021/04/15 02:33:01;;;;;;;1.70;0.30;;;4.90;82.50;;;;;;5073040;28;20082;-73
2021/04/15 02:35:49;;;;;;;1.70;0.30;;;4.80;82.50;;;;;;5039509;28;20115;-72
2021/04/15 02:38:18;;;;;;;1.33;0.33;;;4.90;83.20;;;;;;5072724;28;20403;-73
2021/04/15 02:41:03;;;;;;;1.60;0.30;;;5.00;82.60;;;;;;5072961;28;20472;-73
2021/04/15 02:43:51;;;;;;;1.20;0.40;;;4.90;82.80;;;;;;5055594;28;20065;-72
2021/04/15 02:46:29;;;;;;;1.13;0.30;;;4.80;82.60;;;;;;5072874;28;20388;-73
2021/04/15 02:49:00;;;;;;;1.90;0.40;;;4.80;82.50;;;;;;5073488;28;20104;-73
2021/04/15 02:51:47;;;;;;;2.57;0.40;;;4.70;82.40;;;;;;5054748;28;20021;-72
2021/04/15 02:54:19;;;;;;;1.00;0.40;;;4.70;82.50;;;;;;5073323;28;20439;-73
2021/04/15 02:57:01;;;;;;;2.13;0.40;;;4.70;82.50;;;;;;5073037;28;20387;-73
2021/04/15 02:59:32;;;;;;;0.70;0.30;;;4.70;82.60;;;;;;5072666;28;20028;-73
2021/04/15 03:02:06;;;;;;;1.13;0.40;;;4.80;82.90;;;;;;5072834;28;20035;-74
2021/04/15 03:04:33;;;;;;;1.30;0.30;;;4.70;82.80;;;;;;5073261;28;20024;-74
2021/04/15 03:07:01;;;;;;;1.63;0.40;;;4.60;83.30;;;;;;5054867;28;20095;-74
2021/04/15 03:09:33;;;;;;;2.00;0.40;;;4.70;83.50;;;;;;5073469;28;20036;-74
2021/04/15 03:12:04;;;;;;;1.70;0.40;;;4.60;83.60;;;;;;5054765;28;20020;-73
2021/04/15 03:14:59;;;;;;;2.70;0.43;;;4.60;83.60;;;;;;5072855;28;20063;-73
2021/04/15 03:17:27;;;;;;;4.37;0.60;;;4.60;83.60;;;;;;5041527;28;20036;-73
2021/04/15 03:19:59;;;;;;;3.00;0.67;;;4.60;83.70;;;;;;5054863;28;20024;-73
2021/04/15 03:22:52;;;;;;;2.80;0.70;;;4.60;83.70;;;;;;5072691;28;20060;-73
2021/04/15 03:25:19;;;;;;;2.27;0.70;;;4.50;83.90;;;;;;5038029;28;20037;-73
2021/04/15 03:28:03;;;;;;;2.67;1.00;;;4.50;84.30;;;;;;5076941;28;20090;-73
2021/04/15 03:30:43;;;;;;;3.50;0.98;;;4.50;84.20;;;;;;5058964;28;20031;-73
2021/04/15 03:33:35;;;;;;;2.50;0.50;;;4.40;84.20;;;;;;5058795;28;20029;-73
2021/04/15 03:36:07;;;;;;;2.70;0.80;;;4.40;84.10;;;;;;5076624;28;20024;-73
2021/04/15 03:38:38;;;;;;;2.33;0.60;;;4.40;83.90;;;;;;5076671;28;20032;-73
2021/04/15 03:41:12;;;;;;;1.57;0.50;;;4.40;83.90;;;;;;5076147;28;20436;-73
2021/04/15 03:43:45;;;;;;;2.60;0.57;;;4.30;83.70;;;;;;5076337;28;20028;-73
2021/04/15 03:46:28;;;;;;;1.03;0.40;;;4.30;83.60;;;;;;5076177;28;20392;-73
2021/04/15 03:48:59;;;;;;;2.63;0.50;;;4.10;83.60;;;;;;5076351;28;20028;-73
2021/04/15 03:51:31;;;;;;;1.03;0.50;;;4.20;83.70;;;;;;5076145;28;20472;-73
2021/04/15 03:54:01;;;;;;;3.33;0.50;;;4.10;83.90;;;;;;5076321;28;20032;-73
2021/04/15 03:56:32;;;;;;;1.83;0.67;;;4.00;83.70;;;;;;5076565;28;20412;-74
2021/04/15 03:59:05;;;;;;;1.83;0.57;;;4.00;84.00;;;;;;5075779;28;20476;-73
2021/04/15 04:01:36;;;;;;;2.07;0.50;;;3.80;84.10;;;;;;5067041;28;20067;-73
2021/04/15 04:04:06;;;;;;;1.10;0.60;;;3.90;84.30;;;;;;5052942;28;20025;-73
2021/04/15 04:06:38;;;;;;;2.03;0.50;;;3.90;84.40;;;;;;5062723;28;20099;-74
2021/04/15 04:09:14;;;;;;;0.87;0.50;;;3.90;84.60;;;;;;5056233;28;20109;-72
2021/04/15 04:11:43;;;;;;;1.30;0.60;;;4.00;84.90;;;;;;5055136;28;20112;-72
2021/04/15 04:14:19;;;;;;;2.07;0.60;;;3.90;85.10;;;;;;5063386;28;20028;-74
2021/04/15 04:16:51;;;;;;;3.63;0.93;;;3.80;85.10;;;;;;5066528;28;20040;-72
2021/04/15 04:19:35;;;;;;;1.73;0.90;;;4.00;85.40;;;;;;5075453;28;20029;-73
2021/04/15 04:22:35;;;;;;;1.87;0.70;;;3.90;85.40;;;;;;5057629;28;20029;-72
2021/04/15 04:25:24;;;;;;;1.73;0.60;;;3.90;85.40;;;;;;5057514;28;20040;-72
2021/04/15 04:28:06;;;;;;;2.10;0.80;;;4.00;85.40;;;;;;5075712;28;20027;-72
2021/04/15 04:30:42;;;;;;;2.50;0.70;;;3.90;85.40;;;;;;5075538;28;20017;-72
2021/04/15 04:33:10;;;;;;;2.93;1.00;;;4.00;85.50;;;;;;5075206;28;20107;-73
2021/04/15 04:35:40;;;;;;;4.13;0.70;;;3.90;85.50;;;;;;5053148;28;20515;-73
2021/04/15 04:38:09;;;;;;;2.80;0.83;;;3.90;85.50;;;;;;5036676;28;20040;-72
2021/04/15 04:40:43;;;;;;;3.37;0.90;;;3.90;85.60;;;;;;5054739;28;20465;-74
2021/04/15 04:43:23;;;;;;;2.50;0.93;;;3.80;85.70;;;;;;5037531;28;20025;-73
2021/04/15 04:45:49;;;;;;;3.80;0.97;;;3.90;85.70;;;;;;5055554;28;20045;-74
2021/04/15 04:48:41;;;;;;;2.73;0.87;;;3.80;85.70;;;;;;5037763;28;20032;-74
2021/04/15 04:51:16;;;;;;;1.50;0.60;;;3.80;85.80;;;;;;5067085;28;20028;-73
2021/04/15 04:53:44;;;;;;;4.20;1.23;;;3.90;85.90;;;;;;5075276;28;20036;-72
2021/04/15 04:56:15;;;;;;;4.50;1.20;;;3.70;85.80;;;;;;5075212;28;20032;-72
2021/04/15 04:58:41;;;;;;;2.70;0.83;;;3.70;85.90;;;;;;5075384;28;20438;-72
2021/04/15 05:01:07;;;;;;;3.27;1.00;;;3.70;86.10;;;;;;5075550;28;20112;-72
2021/04/15 05:03:33;;;;;;;3.87;0.90;;;3.70;86.10;;;;;;5075240;28;20108;-73
2021/04/15 05:06:05;;;;;;;2.23;0.80;;;3.70;86.30;;;;;;5057499;28;20345;-72
2021/04/15 05:08:54;;;;;;;6.63;1.20;;;3.70;86.30;;;;;;5074539;28;20430;-73
2021/04/15 05:11:20;;;;;;;5.03;1.10;;;3.70;86.30;;;;;;5074960;28;20044;-73
2021/04/15 05:13:47;;;;;;;2.20;0.80;;;3.70;86.60;;;;;;5075202;28;20036;-73
2021/04/15 05:16:13;;;;;;;4.97;1.57;;;3.70;86.80;;;;;;5074222;28;20517;-74
2021/04/15 05:18:39;;;;;;;3.30;1.07;;;3.70;87.10;;;;;;5056103;28;20041;-74
2021/04/15 05:21:18;;;;;;;4.97;1.23;;;3.70;87.20;;;;;;5073499;28;20033;-73
2021/04/15 05:24:01;;;;;;;4.50;1.33;;;3.70;87.40;;;;;;5055987;28;20021;-73
2021/04/15 05:26:32;;;;;;;4.20;1.40;;;3.70;87.50;;;;;;5039047;28;20154;-74
2021/04/15 05:29:01;;;;;;;5.33;1.70;;;3.80;87.60;;;;;;5076343;28;20498;-74
2021/04/15 05:31:32;;;;;;;4.47;1.53;;;3.80;87.80;;;;;;5066254;28;20037;-74
2021/04/15 05:34:00;;;;;;;3.57;1.20;;;3.90;87.90;;;;;;5074095;28;20033;-74
2021/04/15 05:36:47;;;;;;;5.37;1.60;;;3.90;87.90;;;;;;5073724;28;20021;-72
2021/04/15 05:39:17;;;;;;;5.13;1.60;;;4.00;87.80;;;;;;5073337;28;20108;-72
2021/04/15 05:41:57;;;;;;;5.03;1.43;;;4.00;88.00;;;;;;5055207;28;20086;-73
2021/04/15 05:44:40;;;;;;;4.20;1.60;;;4.10;87.90;;;;;;5055439;28;20456;-73
2021/04/15 05:47:22;;;;;;;3.40;1.53;;;4.10;87.90;;;;;;5075722;28;20522;-73
2021/04/15 05:49:58;;;;;;;6.10;2.20;;;4.10;87.80;;;;;;5073453;28;20031;-73
2021/04/15 05:52:39;;;;;;;5.67;1.50;;;4.10;87.80;;;;;;5059667;28;20048;-73
2021/04/15 05:55:16;;;;;;;6.23;2.17;;;4.30;88.10;;;;;;5068383;28;20067;-73
2021/04/15 05:57:48;;;;;;;3.43;1.53;;;4.00;87.90;;;;;;5063319;28;20511;-73
2021/04/15 06:00:32;;;;;;;5.23;1.70;;;4.20;88.10;;;;;;5060833;28;20021;-73
2021/04/15 06:03:07;;;;;;;8.82;1.63;;;4.30;88.10;;;;;;5062942;28;20029;-72
2021/04/15 06:05:42;;;;;;;4.60;1.53;;;4.30;88.10;;;;;;5066655;28;20534;-72
2021/04/15 06:08:10;;;;;;;5.33;1.80;;;4.40;88.10;;;;;;5066074;28;20036;-73
2021/04/15 06:10:38;;;;;;;5.00;1.60;;;4.40;88.10;;;;;;5071618;28;20028;-74
2021/04/15 06:13:17;;;;;;;6.93;2.10;;;4.50;88.20;;;;;;5049878;28;20021;-74
2021/04/15 06:15:51;;;;;;;6.53;2.20;;;4.50;88.10;;;;;;5065685;28;20107;-74
2021/04/15 06:18:41;;;;;;;6.07;2.43;;;4.50;88.00;;;;;;5070939;28;20483;-74
2021/04/15 06:21:08;;;;;;;7.33;2.23;;;4.50;87.90;;;;;;5044682;28;20029;-74
2021/04/15 06:23:49;;;;;;;7.57;2.90;;;4.50;87.80;;;;;;5070083;28;20037;-74
2021/04/15 06:26:40;;;;;;;8.63;2.90;;;4.50;87.80;;;;;;5053632;28;20051;-74
2021/04/15 06:29:17;;;;;;;8.43;3.27;;;4.50;88.00;;;;;;5057908;28;20104;-74
2021/04/15 06:31:46;;;;;;;7.53;2.80;;;4.50;88.10;;;;;;5067520;28;20085;-74
2021/04/15 06:34:13;;;;;;;7.93;3.00;;;4.50;88.10;;;;;;5072168;28;20051;-74
2021/04/15 06:36:39;;;;;;;7.80;2.80;;;4.60;88.20;;;;;;5072793;28;20025;-74
2021/04/15 06:39:20;;;;;;;6.67;2.90;;;4.70;88.30;;;;;;5073213;28;20032;-74
2021/04/15 06:42:04;;;;;;;7.57;2.67;;;4.80;88.50;;;;;;5054063;28;20033;-73
2021/04/15 06:44:50;;;;;;;5.78;2.47;;;4.90;88.50;;;;;;5072838;28;20025;-75
2021/04/15 06:47:46;;;;;;;6.70;2.47;;;5.10;88.40;;;;;;5073925;28;20037;-73
2021/04/15 06:50:21;;;;;;;7.73;2.37;;;5.20;88.70;;;;;;5042903;28;20093;-73
2021/04/15 06:53:15;;;;;;;5.43;2.27;;;5.20;88.50;;;;;;5077821;28;20074;-71
2021/04/15 06:56:23;;;;;;;5.28;1.70;;;5.30;88.30;;;;;;5074115;28;20372;-73
2021/04/15 06:59:20;;;;;;;6.67;2.00;;;5.30;88.00;;;;;;4993412;28;20048;-72
2021/04/15 07:01:50;;;;;;;6.87;2.00;;;5.40;88.00;;;;;;4993720;28;20030;-72
2021/04/15 07:04:20;;;;;;;4.87;2.03;;;5.30;87.80;;;;;;5053950;28;20033;-74
2021/04/15 07:07:07;;;;;;;7.00;2.03;;;5.50;87.70;;;;;;5071564;28;20089;-72
2021/04/15 07:09:52;;;;;;;6.00;1.73;;;5.50;87.50;;;;;;5070216;28;20025;-74
2021/04/15 07:12:51;;;;;;;6.18;2.58;;;5.40;87.30;;;;;;5059966;28;20545;-74
2021/04/15 07:15:46;;;;;;;5.77;2.37;;;5.50;87.20;;;;;;5084889;28;20064;-74
2021/04/15 07:18:52;;;;;;;5.82;2.30;;;5.50;87.30;;;;;;5053541;28;20024;-71
2021/04/15 07:21:39;;;;;;;5.70;2.03;;;5.50;87.30;;;;;;5034655;28;20484;-72
2021/04/15 07:24:29;;;;;;;10.50;1.73;;;5.50;87.30;;;;;;5070999;28;20103;-72
2021/04/15 07:27:07;;;;;;;12.33;2.77;;;5.50;87.50;;;;;;5072835;28;20032;-73
2021/04/15 07:30:10;;;;;;;6.20;2.57;;;5.60;87.40;;;;;;5057498;28;20094;-73
2021/04/15 07:32:44;;;;;;;7.87;2.27;;;5.60;87.60;;;;;;5034496;28;20039;-71
2021/04/15 07:36:04;;;;;;;8.27;2.30;;;5.70;87.60;;;;;;5034784;28;20029;-74
2021/04/15 07:38:53;;;;;;;7.70;1.77;;;5.70;87.30;;;;;;4994399;28;21361;-73
2021/04/15 07:41:36;;;;;;;5.07;1.53;;;5.80;87.30;;;;;;5063297;28;20657;-72
2021/04/15 07:44:23;;;;;;;8.67;1.70;;;5.90;87.10;;;;;;5072658;28;20029;-72
2021/04/15 07:47:07;;;;;;;4.57;1.93;;;5.90;86.90;;;;;;5054815;28;20044;-73
2021/04/15 07:49:35;;;;;;;4.70;1.20;;;6.00;86.80;;;;;;5072041;28;20480;-73
2021/04/15 07:52:45;;;;;;;5.10;1.20;;;6.10;86.70;;;;;;5054179;28;20047;-74
2021/04/15 07:55:35;;;;;;;6.57;1.50;;;6.20;86.50;;;;;;5054499;28;20111;-72
2021/04/15 07:58:31;;;;;;;5.67;1.30;;;6.30;86.20;;;;;;5053996;28;20060;-72
2021/04/15 08:01:03;;;;;;;5.03;1.10;;;6.40;85.90;;;;;;5072086;28;20124;-72
2021/04/15 08:04:06;;;;;;;3.70;1.37;;;6.50;85.30;;;;;;5053980;28;20095;-71
2021/04/15 08:06:40;;;;;;;3.93;1.30;;;6.60;85.40;;;;;;5072534;28;20468;-74
2021/04/15 08:09:24;;;;;;;;;;;6.80;85.30;;;;;;5059566;28;20017;-73
2021/04/15 08:12:04;;;;;;;4.97;0.77;;;6.90;84.80;;;;;;5058044;28;19940;-73
2021/04/15 08:14:35;;;;;;;7.43;1.23;;;7.10;84.80;;;;;;5075842;28;20032;-73
2021/04/15 08:17:13;;;;;;;6.40;0.70;;;7.30;85.00;;;;;;5057602;28;20443;-73
2021/04/15 08:19:50;;;;;;;2.77;0.60;;;7.50;84.50;;;;;;5074222;28;20059;-73
2021/04/15 08:22:57;;;;;;;3.57;0.90;;;7.80;84.40;;;;;;5055591;28;20104;-73
2021/04/15 08:25:48;;;;;;;1.97;0.60;;;7.90;83.60;;;;;;5026327;28;20032;-73
2021/04/15 08:28:44;;;;;;;3.23;0.63;;;8.20;82.60;;;;;;5072665;28;20028;-73
2021/04/15 08:31:47;;;;;;;3.23;0.70;;;8.50;82.10;;;;;;5056770;28;20178;-74
2021/04/15 08:34:35;;;;;;;3.20;0.60;;;8.70;81.60;;;;;;5055478;28;20021;-73
2021/04/15 08:37:39;;;;;;;0.90;0.40;;;8.90;80.40;;;;;;5045155;28;20033;-73
2021/04/15 08:40:27;;;;;;;2.17;0.37;;;9.00;79.60;;;;;;5073829;28;20036;-74
2021/04/15 08:43:25;;;;;;;3.57;0.50;;;9.10;78.80;;;;;;5074681;28;20021;-74
2021/04/15 08:46:17;;;;;;;4.03;0.70;;;9.10;77.60;;;;;;5074911;28;20055;-74
2021/04/15 08:49:05;;;;;;;4.30;1.00;;;9.10;77.30;;;;;;5057167;28;20423;-74
2021/04/15 08:51:42;;;;;;;4.40;0.60;;;9.10;76.90;;;;;;5075064;28;20439;-70
2021/04/15 08:54:10;;;;;;;2.23;0.60;;;9.10;75.20;;;;;;5056892;28;20036;-71
2021/04/15 08:56:47;;;;;;;3.07;0.50;;;9.10;74.50;;;;;;5056340;28;20033;-71
2021/04/15 08:59:35;;;;;;;1.17;0.50;;;9.00;74.00;;;;;;5074596;28;20071;-71
2021/04/15 09:02:16;;;;;;;2.73;0.77;;;9.00;74.10;;;;;;5056340;28;20033;-71
2021/04/15 09:04:57;;;;;;;4.43;0.60;;;9.00;74.30;;;;;;5074947;28;20021;-71
2021/04/15 09:07:48;;;;;;;2.67;0.60;;;9.10;73.30;;;;;;5070945;28;20032;-70
2021/04/15 09:10:56;;;;;;;1.60;0.60;;;9.20;73.00;;;;;;5070038;28;20232;-69
2021/04/15 09:13:53;;;;;;;2.60;0.60;;;9.40;72.90;;;;;;5074656;28;20053;-73
2021/04/15 09:16:47;;;;;;;2.77;0.50;;;9.50;72.70;;;;;;5074237;28;20387;-73
2021/04/15 09:19:16;;;;;;;1.60;0.50;;;9.50;72.20;;;;;;5048811;28;20021;-73
2021/04/15 09:21:53;;;;;;;4.60;0.50;;;9.50;71.90;;;;;;5036487;28;20610;-73
2021/04/15 09:24:42;;;;;;;2.93;0.40;;;9.50;69.70;;;;;;5072247;28;20037;-74
2021/04/15 09:27:21;;;;;;;0.70;0.30;;;9.50;69.70;;;;;;5057983;28;20368;-73
2021/04/15 09:29:51;;;;;;;1.40;0.40;;;9.60;68.40;;;;;;5090817;28;20107;-72
2021/04/15 09:32:20;;;;;;;2.03;0.50;;;9.60;68.10;;;;;;5076304;28;20040;-73
2021/04/15 09:35:04;;;;;;;2.03;0.63;;;9.60;68.10;;;;;;5094629;28;20024;-72
2021/04/15 09:37:30;;;;;;;1.60;0.47;;;9.70;68.50;;;;;;5091743;28;20032;-73
2021/04/15 09:40:01;;;;;;;1.73;0.60;;;9.80;68.80;;;;;;5063927;28;20403;-72
2021/04/15 09:42:57;;;;;;;3.80;0.77;;;10.00;68.10;;;;;;5065614;28;20093;-72
2021/04/15 09:46:04;;;;;;;2.70;0.50;;;10.20;67.10;;;;;;5056497;28;20020;-72
2021/04/15 09:48:59;;;;;;;2.10;0.40;;;10.30;66.40;;;;;;5075580;28;20506;-73
2021/04/15 09:51:39;;;;;;;5.73;0.60;;;10.50;65.80;;;;;;5092714;28;20104;-72
2021/04/15 09:54:24;;;;;;;2.37;0.60;;;10.50;64.90;;;;;;5075863;28;20067;-73
2021/04/15 09:57:18;;;;;;;1.20;0.50;;;10.60;65.20;;;;;;5082992;28;20017;-72
2021/04/15 10:00:10;;;;;;;2.65;0.50;;;10.60;64.20;;;;;;5054642;28;20078;-72
2021/04/15 10:02:54;;;;;;;2.43;0.87;;;10.60;63.50;;;;;;5052554;28;20040;-72
2021/04/15 10:05:58;;;;;;;1.90;0.80;;;10.50;63.00;;;;;;5055436;28;20112;-72
2021/04/15 10:08:27;;;;;;;5.90;0.80;;;10.40;62.90;;;;;;5076363;28;20016;-72
2021/04/15 10:11:06;;;;;;;2.83;0.77;;;10.40;62.70;;;;;;5058206;28;20016;-72
2021/04/15 10:13:59;;;;;;;2.87;0.60;;;10.40;62.70;;;;;;5053611;28;20065;-71
2021/04/15 10:16:41;;;;;;;3.07;0.77;;;10.30;62.70;;;;;;5055308;28;20032;-72
2021/04/15 10:19:43;;;;;;;1.77;0.60;;;10.30;63.00;;;;;;5055715;28;20024;-72
2021/04/15 10:22:27;;;;;;;1.73;0.60;;;10.40;63.70;;;;;;5055573;28;20043;-72
2021/04/15 10:24:55;;;;;;;2.97;0.65;;;10.70;63.50;;;;;;5073523;28;20032;-74
2021/04/15 10:27:23;;;;;;;2.13;0.90;;;11.10;62.90;;;;;;5073626;28;20025;-73
2021/04/15 10:30:08;;;;;;;4.82;0.70;;;11.60;63.80;;;;;;5055453;28;20031;-74
2021/04/15 10:33:02;;;;;;;;;;;12.20;63.70;;;;;;5073473;28;20024;-72
2021/04/15 10:35:36;;;;;;;1.20;0.40;;;13.20;64.30;;;;;;5062662;28;19915;-72
2021/04/15 10:38:26;;;;;;;1.63;0.43;;;13.90;61.40;;;;;;5075693;28;20074;-71
2021/04/15 10:41:10;;;;;;;2.70;0.47;;;14.30;60.30;;;;;;5056666;28;20086;-72
2021/04/15 10:43:51;;;;;;;1.65;0.40;;;14.40;58.20;;;;;;5053255;28;20499;-73
2021/04/15 10:46:32;;;;;;;3.10;0.47;;;14.30;56.90;;;;;;5070610;28;20049;-72
2021/04/15 10:49:29;;;;;;;1.15;0.30;;;14.10;54.40;;;;;;5070292;28;20017;-73
2021/04/15 10:52:15;;;;;;;2.70;0.60;;;13.90;53.60;;;;;;5069687;28;20032;-71
2021/04/15 10:54:42;;;;;;;2.28;0.55;;;13.90;53.10;;;;;;5066697;28;20468;-71
2021/04/15 10:57:33;;;;;;;1.75;0.40;;;13.90;54.00;;;;;;5086337;28;20025;-72
2021/04/15 11:00:23;;;;;;;2.00;0.60;;;14.20;53.90;;;;;;5072784;28;20089;-72
2021/04/15 11:02:56;;;;;;;2.00;0.68;;;14.50;52.90;;;;;;5054377;28;20044;-73
2021/04/15 11:05:39;;;;;;;1.27;0.40;;;14.50;51.00;;;;;;5073133;28;20020;-72
2021/04/15 11:08:07;;;;;;;1.90;0.50;;;14.50;51.80;;;;;;5072503;28;20021;-72
2021/04/15 11:10:35;;;;;;;2.05;0.60;;;14.40;51.90;;;;;;5054947;28;20028;-72
2021/04/15 11:13:05;;;;;;;1.17;0.40;;;14.50;52.40;;;;;;5054731;28;20020;-73
2021/04/15 11:15:49;;;;;;;1.73;0.50;;;14.90;52.60;;;;;;5057112;28;20476;-72
2021/04/15 11:18:27;;;;;;;1.17;0.50;;;15.30;52.40;;;;;;5072592;28;20090;-72
2021/04/15 11:21:10;;;;;;;0.80;0.40;;;15.70;52.30;;;;;;5072534;28;20087;-72
2021/04/15 11:23:35;;;;;;;1.77;0.60;;;15.80;51.40;;;;;;5072461;28;20455;-73
2021/04/15 11:26:24;;;;;;;3.33;0.55;;;15.70;49.80;;;;;;5072577;28;20029;-72
2021/04/15 11:28:53;;;;;;;1.95;0.65;;;15.80;49.20;;;;;;5072470;28;20027;-72
2021/04/15 11:31:40;;;;;;;4.35;0.63;;;16.50;48.90;;;;;;5072093;28;20024;-72
2021/04/15 11:34:23;;;;;;;1.50;0.50;;;17.30;47.20;;;;;;5060321;28;20020;-72
2021/04/15 11:36:59;;;;;;;1.42;0.57;;;17.50;46.20;;;;;;5057983;28;20078;-72
2021/04/15 11:39:28;;;;;;;1.90;0.60;;;17.50;45.20;;;;;;5072503;28;20101;-72
2021/04/15 11:42:02;;;;;;;1.52;0.63;;;17.60;45.20;;;;;;5054225;28;20020;-73
2021/04/15 11:44:36;;;;;;;1.70;0.60;;;17.80;44.60;;;;;;5072433;28;20017;-73
2021/04/15 11:47:21;;;;;;;1.88;0.60;;;18.60;44.00;;;;;;5074602;28;20041;-72
2021/04/15 11:49:48;;;;;;;2.08;0.50;;;19.40;42.60;;;;;;5076224;28;20099;-73
2021/04/15 11:52:19;;;;;;;1.55;0.60;;;20.40;42.10;;;;;;5076355;28;20036;-73
2021/04/15 11:54:59;;;;;;;1.77;0.40;;;21.30;40.80;;;;;;5076209;28;20028;-72
2021/04/15 11:57:51;;;;;;;1.13;0.50;;;22.10;39.80;;;;;;5075980;28;20021;-73
2021/04/15 12:00:23;;;;;;;1.30;0.40;;;22.40;37.10;;;;;;5058218;28;20048;-72
2021/04/15 12:02:55;;;;;;;4.38;0.60;;;22.00;37.00;;;;;;5076008;28;20060;-72
2021/04/15 12:05:33;;;;;;;1.42;0.50;;;21.80;35.40;;;;;;5075664;28;20021;-72
2021/04/15 12:08:37;;;;;;;2.08;0.50;;;21.40;35.00;;;;;;5081029;28;20028;-73
2021/04/15 12:11:20;;;;;;;1.67;0.52;;;20.70;35.10;;;;;;5077421;28;20099;-73
2021/04/15 12:13:56;;;;;;;1.67;0.70;;;20.10;35.80;;;;;;5075919;28;20368;-72
2021/04/15 12:16:26;;;;;;;2.28;0.60;;;19.40;36.10;;;;;;5060352;28;20506;-72
2021/04/15 12:19:19;;;;;;;2.13;0.60;;;18.80;36.50;;;;;;5057703;28;20032;-72
2021/04/15 12:22:22;;;;;;;1.60;0.67;;;18.70;37.20;;;;;;5075241;28;20468;-72
2021/04/15 12:24:53;;;;;;;1.83;0.60;;;19.00;36.70;;;;;;5075664;28;20425;-73
2021/04/15 12:27:27;;;;;;;1.55;0.60;;;19.20;36.30;;;;;;5078125;28;20008;-72
2021/04/15 12:30:31;;;;;;;1.25;0.38;;;19.00;35.40;;;;;;5079837;28;20471;-72
2021/04/15 12:33:23;;;;;;;1.63;0.60;;;18.80;35.20;;;;;;5044722;28;20033;-73
2021/04/15 12:35:51;;;;;;;2.38;0.52;;;18.60;34.50;;;;;;5081734;28;20380;-73
2021/04/15 12:38:40;;;;;;;2.10;0.73;;;18.10;34.00;;;;;;5081811;28;20078;-72
2021/04/15 12:41:12;;;;;;;2.53;0.70;;;17.70;34.30;;;;;;5083805;28;20043;-71
2021/04/15 12:43:46;;;;;;;2.08;0.80;;;17.40;34.60;;;;;;5067421;28;20024;-72
2021/04/15 12:46:17;;;;;;;;;;;17.10;34.90;;;;;;5075045;28;20091;-72
2021/04/15 12:48:54;;;;;;;1.40;0.57;;;17.30;35.80;;;;;;5075253;28;19908;-72
2021/04/15 12:51:33;;;;;;;2.85;0.90;;;17.50;35.50;;;;;;5056836;28;20441;-72
2021/04/15 12:54:04;;;;;;;5.78;0.90;;;17.40;34.80;;;;;;5061144;28;20127;-72
2021/04/15 12:56:43;;;;;;;2.33;0.80;;;17.40;35.00;;;;;;5077169;28;20041;-72
2021/04/15 12:59:16;;;;;;;2.55;0.60;;;17.40;35.50;;;;;;5055736;28;20043;-72
2021/04/15 13:01:42;;;;;;;3.10;0.73;;;18.10;35.90;;;;;;5056767;28;20048;-72
2021/04/15 13:04:31;;;;;;;1.65;0.75;;;18.90;35.80;;;;;;5075057;28;20059;-72
2021/04/15 13:07:00;;;;;;;1.63;0.60;;;19.80;34.00;;;;;;5074890;28;20031;-72
2021/04/15 13:09:27;;;;;;;2.55;0.60;;;20.50;33.40;;;;;;5074749;28;20112;-72
2021/04/15 13:11:52;;;;;;;2.83;0.55;;;20.60;32.70;;;;;;5074538;28;20419;-73
2021/04/15 13:14:38;;;;;;;2.60;0.63;;;20.50;32.00;;;;;;5074578;28;20032;-72
2021/04/15 13:17:05;;;;;;;4.25;0.88;;;20.10;31.20;;;;;;5074593;28;20032;-72
2021/04/15 13:19:36;;;;;;;3.28;0.90;;;19.50;31.20;;;;;;5074301;28;20475;-72
2021/04/15 13:22:13;;;;;;;3.85;0.73;;;19.00;31.80;;;;;;5061548;28;20032;-72
2021/04/15 13:25:01;;;;;;;2.35;0.45;;;18.40;32.00;;;;;;5074334;28;20073;-71
2021/04/15 13:27:35;;;;;;;1.75;0.70;;;17.80;32.70;;;;;;5066594;28;20441;-72
2021/04/15 13:30:20;;;;;;;3.55;0.70;;;17.40;33.10;;;;;;5094462;28;20028;-72
2021/04/15 13:33:10;;;;;;;1.70;0.60;;;16.90;33.40;;;;;;5094350;28;20035;-75
2021/04/15 13:36:03;;;;;;;4.50;0.70;;;16.60;33.90;;;;;;5075971;28;20085;-76
2021/04/15 13:41:21;;;;;;;3.95;0.90;;;16.20;34.50;;;;;;5094368;28;20032;-76
2021/04/15 13:44:02;;;;;;;1.67;0.70;;;16.10;34.40;;;;;;5094279;28;20056;-76
2021/04/15 13:46:38;;;;;;;3.30;0.90;;;16.10;34.60;;;;;;5093673;28;20073;-76
2021/04/15 13:49:14;;;;;;;3.90;0.65;;;16.30;34.80;;;;;;5075952;28;20020;-76
2021/04/15 13:52:10;;;;;;;2.47;0.90;;;16.60;34.80;;;;;;5094012;28;20157;-77
2021/04/15 13:54:46;;;;;;;3.00;0.70;;;17.00;34.40;;;;;;5046881;28;20123;-76
2021/04/15 13:57:18;;;;;;;4.13;0.70;;;17.20;34.30;;;;;;5054834;28;20051;-76
2021/04/15 13:59:58;;;;;;;2.03;0.70;;;17.30;33.70;;;;;;5072956;28;20024;-76